sensor_id;sensor_type;location;lat;lon;timestamp;temperature;humidity
7218;DHT22;3650;53.580;10.094;2024-02-23T00:01:54;12.20;57.20
7218;DHT22;3650;53.580;10.094;2024-02-23T00:04:21;12.10;55.30
7218;DHT22;3650;53.580;10.094;2024-02-23T00:06:48;12.10;57.00
7218;DHT22;3650;53.580;10.094;2024-02-23T00:09:16;12.10;56.90
7218;DHT22;3650;53.580;10.094;2024-02-23T00:11:43;12.10;57.40
7218;DHT22;3650;53.580;10.094;2024-02-23T00:14:31;12.10;56.30
7218;DHT22;3650;53.580;10.094;2024-02-23T00:17:01;12.00;56.90
7218;DHT22;3650;53.580;10.094;2024-02-23T00:19:30;12.00;57.30
7218;DHT22;3650;53.580;10.094;2024-02-23T00:21:57;12.00;58.30
7218;DHT22;3650;53.580;10.094;2024-02-23T00:24:26;12.00;58.30
7218;DHT22;3650;53.580;10.094;2024-02-23T00:26:53;12.00;59.20
7218;DHT22;3650;53.580;10.094;2024-02-23T00:29:20;12.00;59.80
7218;DHT22;3650;53.580;10.094;2024-02-23T00:31:47;12.00;59.60
7218;DHT22;3650;53.580;10.094;2024-02-23T00:34:16;12.00;58.10
7218;DHT22;3650;53.580;10.094;2024-02-23T00:36:43;12.00;57.00
7218;DHT22;3650;53.580;10.094;2024-02-23T00:39:10;12.00;57.00
7218;DHT22;3650;53.580;10.094;2024-02-23T00:41:38;11.90;54.60
7218;DHT22;3650;53.580;10.094;2024-02-23T00:44:05;11.90;53.10
7218;DHT22;3650;53.580;10.094;2024-02-23T00:46:32;11.90;50.90
7218;DHT22;3650;53.580;10.094;2024-02-23T00:48:59;11.90;51.50
7218;DHT22;3650;53.580;10.094;2024-02-23T00:51:26;11.80;50.80
7218;DHT22;3650;53.580;10.094;2024-02-23T00:53:52;11.80;50.80
7218;DHT22;3650;53.580;10.094;2024-02-23T00:56:19;11.80;50.80
7218;DHT22;3650;53.580;10.094;2024-02-23T00:58:47;11.80;52.80
7218;DHT22;3650;53.580;10.094;2024-02-23T01:01:14;11.80;56.00
7218;DHT22;3650;53.580;10.094;2024-02-23T01:03:41;11.70;62.60
7218;DHT22;3650;53.580;10.094;2024-02-23T01:06:08;11.60;63.10
7218;DHT22;3650;53.580;10.094;2024-02-23T01:08:35;11.60;65.30
7218;DHT22;3650;53.580;10.094;2024-02-23T01:11:02;11.50;66.90
7218;DHT22;3650;53.580;10.094;2024-02-23T01:13:29;11.30;63.50
7218;DHT22;3650;53.580;10.094;2024-02-23T01:15:57;11.30;64.60
7218;DHT22;3650;53.580;10.094;2024-02-23T01:18:24;11.20;64.70
7218;DHT22;3650;53.580;10.094;2024-02-23T01:20:51;11.10;66.80
7218;DHT22;3650;53.580;10.094;2024-02-23T01:23:18;11.00;66.20
7218;DHT22;3650;53.580;10.094;2024-02-23T01:25:45;11.00;67.70
7218;DHT22;3650;53.580;10.094;2024-02-23T01:28:11;10.90;67.50
7218;DHT22;3650;53.580;10.094;2024-02-23T01:30:38;10.90;69.10
7218;DHT22;3650;53.580;10.094;2024-02-23T01:33:06;10.90;68.60
7218;DHT22;3650;53.580;10.094;2024-02-23T01:35:34;10.80;67.90
7218;DHT22;3650;53.580;10.094;2024-02-23T01:38:02;10.80;68.50
7218;DHT22;3650;53.580;10.094;2024-02-23T01:40:28;10.80;68.80
7218;DHT22;3650;53.580;10.094;2024-02-23T01:43:02;10.80;69.20
7218;DHT22;3650;53.580;10.094;2024-02-23T01:45:29;10.70;70.00
7218;DHT22;3650;53.580;10.094;2024-02-23T01:47:56;10.70;68.60
7218;DHT22;3650;53.580;10.094;2024-02-23T01:50:25;10.60;69.10
7218;DHT22;3650;53.580;10.094;2024-02-23T01:52:53;10.60;69.10
7218;DHT22;3650;53.580;10.094;2024-02-23T01:55:20;10.60;69.20
7218;DHT22;3650;53.580;10.094;2024-02-23T01:57:47;10.60;69.40
7218;DHT22;3650;53.580;10.094;2024-02-23T02:00:16;10.60;68.90
7218;DHT22;3650;53.580;10.094;2024-02-23T02:02:44;10.50;68.90
7218;DHT22;3650;53.580;10.094;2024-02-23T02:05:10;10.50;69.10
7218;DHT22;3650;53.580;10.094;2024-02-23T02:07:40;10.50;68.70
7218;DHT22;3650;53.580;10.094;2024-02-23T02:10:09;10.50;69.90
7218;DHT22;3650;53.580;10.094;2024-02-23T02:12:36;10.50;68.10
7218;DHT22;3650;53.580;10.094;2024-02-23T02:15:04;10.40;65.60
7218;DHT22;3650;53.580;10.094;2024-02-23T02:17:31;10.40;63.90
7218;DHT22;3650;53.580;10.094;2024-02-23T02:19:59;10.30;64.30
7218;DHT22;3650;53.580;10.094;2024-02-23T02:22:31;10.30;62.60
7218;DHT22;3650;53.580;10.094;2024-02-23T02:24:59;10.30;62.90
7218;DHT22;3650;53.580;10.094;2024-02-23T02:27:26;10.30;62.30
7218;DHT22;3650;53.580;10.094;2024-02-23T02:29:53;10.20;63.00
7218;DHT22;3650;53.580;10.094;2024-02-23T02:32:20;10.20;63.10
7218;DHT22;3650;53.580;10.094;2024-02-23T02:34:46;10.20;63.40
7218;DHT22;3650;53.580;10.094;2024-02-23T02:37:13;10.10;63.60
7218;DHT22;3650;53.580;10.094;2024-02-23T02:39:40;10.10;64.30
7218;DHT22;3650;53.580;10.094;2024-02-23T02:42:08;10.00;64.80
7218;DHT22;3650;53.580;10.094;2024-02-23T02:44:35;10.00;64.60
7218;DHT22;3650;53.580;10.094;2024-02-23T02:47:02;10.00;65.10
7218;DHT22;3650;53.580;10.094;2024-02-23T02:49:29;10.00;65.40
7218;DHT22;3650;53.580;10.094;2024-02-23T02:51:56;10.00;65.30
7218;DHT22;3650;53.580;10.094;2024-02-23T02:54:23;10.00;66.00
7218;DHT22;3650;53.580;10.094;2024-02-23T02:56:49;9.90;68.20
7218;DHT22;3650;53.580;10.094;2024-02-23T02:59:21;9.90;68.30
7218;DHT22;3650;53.580;10.094;2024-02-23T03:01:48;9.90;68.50
7218;DHT22;3650;53.580;10.094;2024-02-23T03:04:14;9.90;67.40
7218;DHT22;3650;53.580;10.094;2024-02-23T03:06:41;9.80;68.40
7218;DHT22;3650;53.580;10.094;2024-02-23T03:09:08;9.80;68.40
7218;DHT22;3650;53.580;10.094;2024-02-23T03:11:35;9.80;68.20
7218;DHT22;3650;53.580;10.094;2024-02-23T03:14:03;9.80;69.00
7218;DHT22;3650;53.580;10.094;2024-02-23T03:16:31;9.70;68.90
7218;DHT22;3650;53.580;10.094;2024-02-23T03:18:59;9.70;68.50
7218;DHT22;3650;53.580;10.094;2024-02-23T03:21:26;9.70;68.20
7218;DHT22;3650;53.580;10.094;2024-02-23T03:23:53;9.70;67.70
7218;DHT22;3650;53.580;10.094;2024-02-23T03:26:20;9.60;67.40
7218;DHT22;3650;53.580;10.094;2024-02-23T03:28:46;9.60;67.40
7218;DHT22;3650;53.580;10.094;2024-02-23T03:31:14;9.60;67.20
7218;DHT22;3650;53.580;10.094;2024-02-23T03:33:42;9.60;66.60
7218;DHT22;3650;53.580;10.094;2024-02-23T03:36:09;9.50;66.20
7218;DHT22;3650;53.580;10.094;2024-02-23T03:38:35;9.50;67.00
7218;DHT22;3650;53.580;10.094;2024-02-23T03:41:03;9.50;66.30
7218;DHT22;3650;53.580;10.094;2024-02-23T03:43:29;9.50;66.50
7218;DHT22;3650;53.580;10.094;2024-02-23T03:45:56;9.50;66.30
7218;DHT22;3650;53.580;10.094;2024-02-23T03:48:23;9.40;66.60
7218;DHT22;3650;53.580;10.094;2024-02-23T03:50:51;9.50;66.40
7218;DHT22;3650;53.580;10.094;2024-02-23T03:53:19;9.40;66.00
7218;DHT22;3650;53.580;10.094;2024-02-23T03:55:46;9.40;66.20
7218;DHT22;3650;53.580;10.094;2024-02-23T03:58:13;9.40;66.40
7218;DHT22;3650;53.580;10.094;2024-02-23T04:00:40;9.40;66.70
7218;DHT22;3650;53.580;10.094;2024-02-23T04:03:07;9.40;66.70
7218;DHT22;3650;53.580;10.094;2024-02-23T04:05:34;9.40;66.30
7218;DHT22;3650;53.580;10.094;2024-02-23T04:08:02;9.40;65.80
7218;DHT22;3650;53.580;10.094;2024-02-23T04:10:29;9.40;65.20
7218;DHT22;3650;53.580;10.094;2024-02-23T04:12:57;9.40;64.70
7218;DHT22;3650;53.580;10.094;2024-02-23T04:15:24;9.40;64.20
7218;DHT22;3650;53.580;10.094;2024-02-23T04:17:51;9.40;64.00
7218;DHT22;3650;53.580;10.094;2024-02-23T04:20:18;9.30;63.80
7218;DHT22;3650;53.580;10.094;2024-02-23T04:22:44;9.30;63.90
7218;DHT22;3650;53.580;10.094;2024-02-23T04:25:13;9.30;64.10
7218;DHT22;3650;53.580;10.094;2024-02-23T04:27:40;9.30;64.20
7218;DHT22;3650;53.580;10.094;2024-02-23T04:30:07;9.40;64.60
7218;DHT22;3650;53.580;10.094;2024-02-23T04:32:34;9.30;64.30
7218;DHT22;3650;53.580;10.094;2024-02-23T04:35:01;9.30;64.00
7218;DHT22;3650;53.580;10.094;2024-02-23T04:37:28;9.30;63.30
7218;DHT22;3650;53.580;10.094;2024-02-23T04:39:55;9.30;63.00
7218;DHT22;3650;53.580;10.094;2024-02-23T04:42:23;9.30;63.30
7218;DHT22;3650;53.580;10.094;2024-02-23T04:44:49;9.30;64.00
7218;DHT22;3650;53.580;10.094;2024-02-23T04:47:18;9.30;64.10
7218;DHT22;3650;53.580;10.094;2024-02-23T04:49:45;9.30;63.80
7218;DHT22;3650;53.580;10.094;2024-02-23T04:52:11;9.20;63.80
7218;DHT22;3650;53.580;10.094;2024-02-23T04:54:38;9.20;64.00
7218;DHT22;3650;53.580;10.094;2024-02-23T04:57:05;9.20;64.30
7218;DHT22;3650;53.580;10.094;2024-02-23T04:59:33;9.20;64.50
7218;DHT22;3650;53.580;10.094;2024-02-23T05:02:00;9.30;65.10
7218;DHT22;3650;53.580;10.094;2024-02-23T05:04:27;9.20;64.60
7218;DHT22;3650;53.580;10.094;2024-02-23T05:06:53;9.20;64.60
7218;DHT22;3650;53.580;10.094;2024-02-23T05:09:20;9.20;64.80
7218;DHT22;3650;53.580;10.094;2024-02-23T05:11:47;9.20;64.70
7218;DHT22;3650;53.580;10.094;2024-02-23T05:14:14;9.20;64.60
7218;DHT22;3650;53.580;10.094;2024-02-23T05:16:42;9.20;64.60
7218;DHT22;3650;53.580;10.094;2024-02-23T05:19:09;9.20;64.50
7218;DHT22;3650;53.580;10.094;2024-02-23T05:21:35;9.10;64.30
7218;DHT22;3650;53.580;10.094;2024-02-23T05:24:03;9.10;64.20
7218;DHT22;3650;53.580;10.094;2024-02-23T05:26:31;9.10;64.70
7218;DHT22;3650;53.580;10.094;2024-02-23T05:28:58;9.10;64.50
7218;DHT22;3650;53.580;10.094;2024-02-23T05:31:45;9.10;64.40
7218;DHT22;3650;53.580;10.094;2024-02-23T05:34:13;9.10;64.30
7218;DHT22;3650;53.580;10.094;2024-02-23T05:36:40;9.10;64.10
7218;DHT22;3650;53.580;10.094;2024-02-23T05:39:07;9.10;64.30
7218;DHT22;3650;53.580;10.094;2024-02-23T05:41:35;9.00;63.30
7218;DHT22;3650;53.580;10.094;2024-02-23T05:44:02;9.00;63.00
7218;DHT22;3650;53.580;10.094;2024-02-23T05:46:31;9.00;63.10
7218;DHT22;3650;53.580;10.094;2024-02-23T05:48:59;9.00;62.40
7218;DHT22;3650;53.580;10.094;2024-02-23T05:51:27;9.10;62.50
7218;DHT22;3650;53.580;10.094;2024-02-23T05:53:54;9.10;62.40
7218;DHT22;3650;53.580;10.094;2024-02-23T05:56:21;9.00;62.70
7218;DHT22;3650;53.580;10.094;2024-02-23T05:58:49;9.00;62.30
7218;DHT22;3650;53.580;10.094;2024-02-23T06:01:16;9.00;62.80
7218;DHT22;3650;53.580;10.094;2024-02-23T06:03:43;9.10;62.90
7218;DHT22;3650;53.580;10.094;2024-02-23T06:06:12;9.10;62.50
7218;DHT22;3650;53.580;10.094;2024-02-23T06:08:39;9.10;62.40
7218;DHT22;3650;53.580;10.094;2024-02-23T06:11:06;9.10;62.40
7218;DHT22;3650;53.580;10.094;2024-02-23T06:13:35;9.10;61.80
7218;DHT22;3650;53.580;10.094;2024-02-23T06:16:02;9.10;61.30
7218;DHT22;3650;53.580;10.094;2024-02-23T06:18:29;9.10;61.40
7218;DHT22;3650;53.580;10.094;2024-02-23T06:20:56;9.10;61.50
7218;DHT22;3650;53.580;10.094;2024-02-23T06:23:24;9.10;60.40
7218;DHT22;3650;53.580;10.094;2024-02-23T06:25:51;9.10;60.00
7218;DHT22;3650;53.580;10.094;2024-02-23T06:28:18;9.00;59.60
7218;DHT22;3650;53.580;10.094;2024-02-23T06:30:45;9.00;59.40
7218;DHT22;3650;53.580;10.094;2024-02-23T06:33:11;9.10;59.50
7218;DHT22;3650;53.580;10.094;2024-02-23T06:35:38;9.00;59.30
7218;DHT22;3650;53.580;10.094;2024-02-23T06:38:05;9.00;59.20
7218;DHT22;3650;53.580;10.094;2024-02-23T06:40:33;9.00;59.60
7218;DHT22;3650;53.580;10.094;2024-02-23T06:43:00;9.00;59.80
7218;DHT22;3650;53.580;10.094;2024-02-23T06:45:27;9.00;59.50
7218;DHT22;3650;53.580;10.094;2024-02-23T06:47:55;9.00;59.20
7218;DHT22;3650;53.580;10.094;2024-02-23T06:50:22;9.00;59.80
7218;DHT22;3650;53.580;10.094;2024-02-23T06:52:48;9.00;59.90
7218;DHT22;3650;53.580;10.094;2024-02-23T06:55:15;9.00;59.90
7218;DHT22;3650;53.580;10.094;2024-02-23T06:57:44;9.00;59.60
7218;DHT22;3650;53.580;10.094;2024-02-23T07:00:13;9.00;59.70
7218;DHT22;3650;53.580;10.094;2024-02-23T07:02:40;9.00;59.20
7218;DHT22;3650;53.580;10.094;2024-02-23T07:05:07;9.00;59.70
7218;DHT22;3650;53.580;10.094;2024-02-23T07:07:34;9.00;60.20
7218;DHT22;3650;53.580;10.094;2024-02-23T07:10:02;9.00;60.70
7218;DHT22;3650;53.580;10.094;2024-02-23T07:12:28;9.00;60.80
7218;DHT22;3650;53.580;10.094;2024-02-23T07:14:57;9.00;60.70
7218;DHT22;3650;53.580;10.094;2024-02-23T07:17:24;9.00;61.00
7218;DHT22;3650;53.580;10.094;2024-02-23T07:19:50;9.00;61.90
7218;DHT22;3650;53.580;10.094;2024-02-23T07:22:18;9.00;62.20
7218;DHT22;3650;53.580;10.094;2024-02-23T07:24:45;9.00;62.10
7218;DHT22;3650;53.580;10.094;2024-02-23T07:27:12;9.10;62.10
7218;DHT22;3650;53.580;10.094;2024-02-23T07:29:39;9.10;62.40
7218;DHT22;3650;53.580;10.094;2024-02-23T07:32:07;9.10;62.40
7218;DHT22;3650;53.580;10.094;2024-02-23T07:34:34;9.10;62.00
7218;DHT22;3650;53.580;10.094;2024-02-23T07:37:01;9.10;62.40
7218;DHT22;3650;53.580;10.094;2024-02-23T07:39:28;9.20;62.90
7218;DHT22;3650;53.580;10.094;2024-02-23T07:41:55;9.20;63.40
7218;DHT22;3650;53.580;10.094;2024-02-23T07:44:22;9.20;62.50
7218;DHT22;3650;53.580;10.094;2024-02-23T07:46:50;9.20;61.30
7218;DHT22;3650;53.580;10.094;2024-02-23T07:49:19;9.20;61.00
7218;DHT22;3650;53.580;10.094;2024-02-23T07:51:46;9.20;60.70
7218;DHT22;3650;53.580;10.094;2024-02-23T07:54:13;9.20;60.10
7218;DHT22;3650;53.580;10.094;2024-02-23T07:56:40;9.20;60.20
7218;DHT22;3650;53.580;10.094;2024-02-23T07:59:06;9.20;60.00
7218;DHT22;3650;53.580;10.094;2024-02-23T08:01:33;9.20;60.00
7218;DHT22;3650;53.580;10.094;2024-02-23T08:04:00;9.30;59.80
7218;DHT22;3650;53.580;10.094;2024-02-23T08:06:30;9.20;59.40
7218;DHT22;3650;53.580;10.094;2024-02-23T08:08:56;9.30;60.00
7218;DHT22;3650;53.580;10.094;2024-02-23T08:11:23;9.30;59.70
7218;DHT22;3650;53.580;10.094;2024-02-23T08:13:50;9.30;58.40
7218;DHT22;3650;53.580;10.094;2024-02-23T08:16:17;9.30;58.60
7218;DHT22;3650;53.580;10.094;2024-02-23T08:18:44;9.30;57.30
7218;DHT22;3650;53.580;10.094;2024-02-23T08:21:11;9.30;57.30
7218;DHT22;3650;53.580;10.094;2024-02-23T08:23:39;9.30;56.50
7218;DHT22;3650;53.580;10.094;2024-02-23T08:26:06;9.30;58.00
7218;DHT22;3650;53.580;10.094;2024-02-23T08:28:33;9.40;57.10
7218;DHT22;3650;53.580;10.094;2024-02-23T08:31:00;9.40;56.90
7218;DHT22;3650;53.580;10.094;2024-02-23T08:33:26;9.40;56.40
7218;DHT22;3650;53.580;10.094;2024-02-23T08:35:54;9.40;55.80
7218;DHT22;3650;53.580;10.094;2024-02-23T08:38:21;9.40;55.50
7218;DHT22;3650;53.580;10.094;2024-02-23T08:40:49;9.40;54.50
7218;DHT22;3650;53.580;10.094;2024-02-23T08:43:16;9.40;54.10
7218;DHT22;3650;53.580;10.094;2024-02-23T08:45:43;9.40;53.90
7218;DHT22;3650;53.580;10.094;2024-02-23T08:48:09;9.50;53.80
7218;DHT22;3650;53.580;10.094;2024-02-23T08:50:40;9.40;53.30
7218;DHT22;3650;53.580;10.094;2024-02-23T08:53:07;9.40;52.20
7218;DHT22;3650;53.580;10.094;2024-02-23T08:55:34;9.40;52.10
7218;DHT22;3650;53.580;10.094;2024-02-23T08:58:02;9.40;52.60
7218;DHT22;3650;53.580;10.094;2024-02-23T09:00:31;9.40;52.90
7218;DHT22;3650;53.580;10.094;2024-02-23T09:02:58;9.40;52.80
7218;DHT22;3650;53.580;10.094;2024-02-23T09:05:25;9.40;52.40
7218;DHT22;3650;53.580;10.094;2024-02-23T09:07:52;9.40;53.60
7218;DHT22;3650;53.580;10.094;2024-02-23T09:10:19;9.40;52.40
7218;DHT22;3650;53.580;10.094;2024-02-23T09:12:45;9.50;53.60
7218;DHT22;3650;53.580;10.094;2024-02-23T09:15:14;9.50;54.00
7218;DHT22;3650;53.580;10.094;2024-02-23T09:17:41;9.50;53.20
7218;DHT22;3650;53.580;10.094;2024-02-23T09:20:09;9.50;51.80
7218;DHT22;3650;53.580;10.094;2024-02-23T09:22:36;9.60;51.70
7218;DHT22;3650;53.580;10.094;2024-02-23T09:25:03;9.50;51.40
7218;DHT22;3650;53.580;10.094;2024-02-23T09:27:31;9.60;51.40
7218;DHT22;3650;53.580;10.094;2024-02-23T09:29:58;9.60;50.90
7218;DHT22;3650;53.580;10.094;2024-02-23T09:32:26;9.60;50.50
7218;DHT22;3650;53.580;10.094;2024-02-23T09:34:53;9.60;52.00
7218;DHT22;3650;53.580;10.094;2024-02-23T09:37:20;9.60;51.20
7218;DHT22;3650;53.580;10.094;2024-02-23T09:39:46;9.60;50.30
7218;DHT22;3650;53.580;10.094;2024-02-23T09:42:13;9.60;50.40
7218;DHT22;3650;53.580;10.094;2024-02-23T09:44:41;9.70;49.60
7218;DHT22;3650;53.580;10.094;2024-02-23T09:47:12;9.70;50.00
7218;DHT22;3650;53.580;10.094;2024-02-23T09:49:41;9.70;49.80
7218;DHT22;3650;53.580;10.094;2024-02-23T09:52:08;9.70;50.40
7218;DHT22;3650;53.580;10.094;2024-02-23T09:54:36;9.70;49.80
7218;DHT22;3650;53.580;10.094;2024-02-23T09:57:07;9.70;50.40
7218;DHT22;3650;53.580;10.094;2024-02-23T09:59:34;9.80;50.50
7218;DHT22;3650;53.580;10.094;2024-02-23T10:02:01;9.80;50.20
7218;DHT22;3650;53.580;10.094;2024-02-23T10:04:30;9.80;50.50
7218;DHT22;3650;53.580;10.094;2024-02-23T10:06:58;9.80;49.40
7218;DHT22;3650;53.580;10.094;2024-02-23T10:09:25;9.90;49.60
7218;DHT22;3650;53.580;10.094;2024-02-23T10:11:52;9.90;48.70
7218;DHT22;3650;53.580;10.094;2024-02-23T10:14:20;9.90;48.40
7218;DHT22;3650;53.580;10.094;2024-02-23T10:16:47;9.90;48.00
7218;DHT22;3650;53.580;10.094;2024-02-23T10:19:13;9.90;48.00
7218;DHT22;3650;53.580;10.094;2024-02-23T10:21:40;9.90;48.10
7218;DHT22;3650;53.580;10.094;2024-02-23T10:24:09;9.90;47.50
7218;DHT22;3650;53.580;10.094;2024-02-23T10:26:36;9.90;47.40
7218;DHT22;3650;53.580;10.094;2024-02-23T10:29:03;9.90;47.40
7218;DHT22;3650;53.580;10.094;2024-02-23T10:31:34;10.00;46.00
7218;DHT22;3650;53.580;10.094;2024-02-23T10:34:04;10.00;46.20
7218;DHT22;3650;53.580;10.094;2024-02-23T10:36:36;10.00;47.10
7218;DHT22;3650;53.580;10.094;2024-02-23T10:39:06;10.10;46.00
7218;DHT22;3650;53.580;10.094;2024-02-23T10:41:36;10.10;44.40
7218;DHT22;3650;53.580;10.094;2024-02-23T10:44:04;10.10;44.00
7218;DHT22;3650;53.580;10.094;2024-02-23T10:46:33;10.10;43.80
7218;DHT22;3650;53.580;10.094;2024-02-23T10:49:01;10.10;44.10
7218;DHT22;3650;53.580;10.094;2024-02-23T10:51:28;10.20;44.10
7218;DHT22;3650;53.580;10.094;2024-02-23T10:53:55;10.20;43.00
7218;DHT22;3650;53.580;10.094;2024-02-23T10:56:23;10.20;42.10
7218;DHT22;3650;53.580;10.094;2024-02-23T10:58:52;10.20;42.00
7218;DHT22;3650;53.580;10.094;2024-02-23T11:01:20;10.20;43.20
7218;DHT22;3650;53.580;10.094;2024-02-23T11:03:48;10.20;41.50
7218;DHT22;3650;53.580;10.094;2024-02-23T11:06:16;10.30;41.40
7218;DHT22;3650;53.580;10.094;2024-02-23T11:08:46;10.30;40.60
7218;DHT22;3650;53.580;10.094;2024-02-23T11:11:16;10.30;40.30
7218;DHT22;3650;53.580;10.094;2024-02-23T11:13:45;10.30;40.20
7218;DHT22;3650;53.580;10.094;2024-02-23T11:16:22;10.30;40.30
7218;DHT22;3650;53.580;10.094;2024-02-23T11:18:49;10.30;40.40
7218;DHT22;3650;53.580;10.094;2024-02-23T11:21:16;10.30;40.60
7218;DHT22;3650;53.580;10.094;2024-02-23T11:23:44;10.30;40.30
7218;DHT22;3650;53.580;10.094;2024-02-23T11:26:12;10.30;40.60
7218;DHT22;3650;53.580;10.094;2024-02-23T11:28:43;10.40;40.40
7218;DHT22;3650;53.580;10.094;2024-02-23T11:31:15;10.40;40.00
7218;DHT22;3650;53.580;10.094;2024-02-23T11:33:49;10.40;40.40
7218;DHT22;3650;53.580;10.094;2024-02-23T11:36:22;10.40;39.30
7218;DHT22;3650;53.580;10.094;2024-02-23T11:38:52;10.40;39.00
7218;DHT22;3650;53.580;10.094;2024-02-23T11:41:21;10.40;38.90
7218;DHT22;3650;53.580;10.094;2024-02-23T11:43:49;10.40;38.70
7218;DHT22;3650;53.580;10.094;2024-02-23T11:46:18;10.40;38.60
7218;DHT22;3650;53.580;10.094;2024-02-23T11:48:45;10.40;39.10
7218;DHT22;3650;53.580;10.094;2024-02-23T11:51:13;10.40;39.20
7218;DHT22;3650;53.580;10.094;2024-02-23T11:53:40;10.40;39.30
7218;DHT22;3650;53.580;10.094;2024-02-23T11:56:07;10.40;39.50
7218;DHT22;3650;53.580;10.094;2024-02-23T11:58:34;10.40;39.50
7218;DHT22;3650;53.580;10.094;2024-02-23T12:01:01;10.40;39.30
7218;DHT22;3650;53.580;10.094;2024-02-23T12:03:30;10.50;39.10
7218;DHT22;3650;53.580;10.094;2024-02-23T12:05:57;10.50;38.40
7218;DHT22;3650;53.580;10.094;2024-02-23T12:08:24;10.50;38.40
7218;DHT22;3650;53.580;10.094;2024-02-23T12:10:52;10.50;38.50
7218;DHT22;3650;53.580;10.094;2024-02-23T12:13:19;10.50;38.30
7218;DHT22;3650;53.580;10.094;2024-02-23T12:15:46;10.50;38.10
7218;DHT22;3650;53.580;10.094;2024-02-23T12:18:13;10.50;37.70
7218;DHT22;3650;53.580;10.094;2024-02-23T12:20:42;10.60;37.10
7218;DHT22;3650;53.580;10.094;2024-02-23T12:23:09;10.60;38.40
7218;DHT22;3650;53.580;10.094;2024-02-23T12:25:36;10.60;38.90
7218;DHT22;3650;53.580;10.094;2024-02-23T12:28:04;10.60;38.20
7218;DHT22;3650;53.580;10.094;2024-02-23T12:30:31;10.60;37.10
7218;DHT22;3650;53.580;10.094;2024-02-23T12:33:05;10.60;37.10
7218;DHT22;3650;53.580;10.094;2024-02-23T12:35:34;10.60;37.10
7218;DHT22;3650;53.580;10.094;2024-02-23T12:38:01;10.60;35.30
7218;DHT22;3650;53.580;10.094;2024-02-23T12:40:28;10.60;35.00
7218;DHT22;3650;53.580;10.094;2024-02-23T12:42:55;10.60;35.60
7218;DHT22;3650;53.580;10.094;2024-02-23T12:45:21;10.60;35.90
7218;DHT22;3650;53.580;10.094;2024-02-23T12:47:48;10.60;37.10
7218;DHT22;3650;53.580;10.094;2024-02-23T12:50:15;10.70;36.20
7218;DHT22;3650;53.580;10.094;2024-02-23T12:52:42;10.70;35.90
7218;DHT22;3650;53.580;10.094;2024-02-23T12:55:10;10.70;35.60
7218;DHT22;3650;53.580;10.094;2024-02-23T12:57:36;10.70;34.60
7218;DHT22;3650;53.580;10.094;2024-02-23T13:00:04;10.70;34.60
7218;DHT22;3650;53.580;10.094;2024-02-23T13:02:31;10.60;34.20
7218;DHT22;3650;53.580;10.094;2024-02-23T13:04:58;10.60;34.20
7218;DHT22;3650;53.580;10.094;2024-02-23T13:07:25;10.70;34.80
7218;DHT22;3650;53.580;10.094;2024-02-23T13:09:52;10.70;34.90
7218;DHT22;3650;53.580;10.094;2024-02-23T13:12:20;10.70;34.90
7218;DHT22;3650;53.580;10.094;2024-02-23T13:14:47;10.70;34.60
7218;DHT22;3650;53.580;10.094;2024-02-23T13:17:14;10.70;34.30
7218;DHT22;3650;53.580;10.094;2024-02-23T13:19:40;10.70;34.90
7218;DHT22;3650;53.580;10.094;2024-02-23T13:22:07;10.70;35.20
7218;DHT22;3650;53.580;10.094;2024-02-23T13:24:34;10.70;35.20
7218;DHT22;3650;53.580;10.094;2024-02-23T13:27:00;10.70;35.20
7218;DHT22;3650;53.580;10.094;2024-02-23T13:29:29;10.70;34.60
7218;DHT22;3650;53.580;10.094;2024-02-23T13:31:56;10.70;34.60
7218;DHT22;3650;53.580;10.094;2024-02-23T13:34:22;10.80;34.20
7218;DHT22;3650;53.580;10.094;2024-02-23T13:36:49;10.70;34.00
7218;DHT22;3650;53.580;10.094;2024-02-23T13:39:18;10.80;34.00
7218;DHT22;3650;53.580;10.094;2024-02-23T13:41:44;10.80;33.70
7218;DHT22;3650;53.580;10.094;2024-02-23T13:44:11;10.80;33.60
7218;DHT22;3650;53.580;10.094;2024-02-23T13:46:39;10.80;33.40
7218;DHT22;3650;53.580;10.094;2024-02-23T13:49:07;10.80;33.50
7218;DHT22;3650;53.580;10.094;2024-02-23T13:51:35;10.80;34.40
7218;DHT22;3650;53.580;10.094;2024-02-23T13:54:02;10.80;34.70
7218;DHT22;3650;53.580;10.094;2024-02-23T13:56:29;10.80;33.60
7218;DHT22;3650;53.580;10.094;2024-02-23T13:58:56;10.80;33.10
7218;DHT22;3650;53.580;10.094;2024-02-23T14:01:23;10.80;33.30
7218;DHT22;3650;53.580;10.094;2024-02-23T14:03:51;10.80;33.20
7218;DHT22;3650;53.580;10.094;2024-02-23T14:06:18;10.80;33.10
7218;DHT22;3650;53.580;10.094;2024-02-23T14:08:45;10.80;33.20
7218;DHT22;3650;53.580;10.094;2024-02-23T14:11:13;10.80;33.10
7218;DHT22;3650;53.580;10.094;2024-02-23T14:13:40;10.80;33.10
7218;DHT22;3650;53.580;10.094;2024-02-23T14:16:07;10.80;33.00
7218;DHT22;3650;53.580;10.094;2024-02-23T14:18:33;10.80;32.30
7218;DHT22;3650;53.580;10.094;2024-02-23T14:21:05;10.90;32.40
7218;DHT22;3650;53.580;10.094;2024-02-23T14:23:32;10.90;32.40
7218;DHT22;3650;53.580;10.094;2024-02-23T14:25:59;10.80;32.20
7218;DHT22;3650;53.580;10.094;2024-02-23T14:28:25;10.90;32.50
7218;DHT22;3650;53.580;10.094;2024-02-23T14:30:52;10.90;32.70
7218;DHT22;3650;53.580;10.094;2024-02-23T14:33:19;10.90;32.90
7218;DHT22;3650;53.580;10.094;2024-02-23T14:35:47;10.90;32.80
7218;DHT22;3650;53.580;10.094;2024-02-23T14:38:16;10.90;33.70
7218;DHT22;3650;53.580;10.094;2024-02-23T14:40:43;11.00;33.50
7218;DHT22;3650;53.580;10.094;2024-02-23T14:43:10;11.00;33.00
7218;DHT22;3650;53.580;10.094;2024-02-23T14:45:37;11.00;32.60
7218;DHT22;3650;53.580;10.094;2024-02-23T14:48:04;11.00;32.50
7218;DHT22;3650;53.580;10.094;2024-02-23T14:50:31;11.00;32.50
7218;DHT22;3650;53.580;10.094;2024-02-23T14:52:58;11.00;32.50
7218;DHT22;3650;53.580;10.094;2024-02-23T14:55:26;11.00;32.80
7218;DHT22;3650;53.580;10.094;2024-02-23T14:57:53;11.00;32.80
7218;DHT22;3650;53.580;10.094;2024-02-23T15:00:21;11.10;32.80
7218;DHT22;3650;53.580;10.094;2024-02-23T15:02:48;11.10;32.20
7218;DHT22;3650;53.580;10.094;2024-02-23T15:05:15;11.10;32.30
7218;DHT22;3650;53.580;10.094;2024-02-23T15:07:43;11.10;32.30
7218;DHT22;3650;53.580;10.094;2024-02-23T15:10:09;11.10;32.50
7218;DHT22;3650;53.580;10.094;2024-02-23T15:12:38;11.10;32.20
7218;DHT22;3650;53.580;10.094;2024-02-23T15:15:05;11.10;32.30
7218;DHT22;3650;53.580;10.094;2024-02-23T15:17:32;11.10;32.50
7218;DHT22;3650;53.580;10.094;2024-02-23T15:19:59;11.10;32.40
7218;DHT22;3650;53.580;10.094;2024-02-23T15:22:26;11.10;32.50
7218;DHT22;3650;53.580;10.094;2024-02-23T15:24:54;11.10;32.50
7218;DHT22;3650;53.580;10.094;2024-02-23T15:27:24;11.10;32.60
7218;DHT22;3650;53.580;10.094;2024-02-23T15:29:52;11.10;32.40
7218;DHT22;3650;53.580;10.094;2024-02-23T15:32:19;11.10;32.10
7218;DHT22;3650;53.580;10.094;2024-02-23T15:34:45;11.10;32.30
7218;DHT22;3650;53.580;10.094;2024-02-23T15:37:12;11.10;32.30
7218;DHT22;3650;53.580;10.094;2024-02-23T15:39:39;11.20;32.50
7218;DHT22;3650;53.580;10.094;2024-02-23T15:42:06;11.10;32.50
7218;DHT22;3650;53.580;10.094;2024-02-23T15:44:33;11.10;32.30
7218;DHT22;3650;53.580;10.094;2024-02-23T15:47:01;11.10;32.20
7218;DHT22;3650;53.580;10.094;2024-02-23T15:49:28;11.10;32.40
7218;DHT22;3650;53.580;10.094;2024-02-23T15:51:55;11.10;32.40
7218;DHT22;3650;53.580;10.094;2024-02-23T15:54:22;11.10;33.40